sensor_id;sensor_type;location;lat;lon;timestamp;temperature;humidity
20102;DHT22;10210;52.284;9.892;2023-06-22T00:00:49;26.20;99.90
20102;DHT22;10210;52.284;9.892;2023-06-22T00:03:17;26.20;99.90
20102;DHT22;10210;52.284;9.892;2023-06-22T00:05:45;26.10;99.90
20102;DHT22;10210;52.284;9.892;2023-06-22T00:08:12;26.10;99.90
20102;DHT22;10210;52.284;9.892;2023-06-22T00:10:38;26.10;99.90
20102;DHT22;10210;52.284;9.892;2023-06-22T00:13:05;26.00;99.90
20102;DHT22;10210;52.284;9.892;2023-06-22T00:15:32;26.00;99.90
20102;DHT22;10210;52.284;9.892;2023-06-22T00:17:58;25.90;99.90
20102;DHT22;10210;52.284;9.892;2023-06-22T00:20:25;25.90;99.90
20102;DHT22;10210;52.284;9.892;2023-06-22T00:22:56;25.80;99.90
20102;DHT22;10210;52.284;9.892;2023-06-22T00:25:23;25.80;99.90
20102;DHT22;10210;52.284;9.892;2023-06-22T00:27:50;25.70;99.90
20102;DHT22;10210;52.284;9.892;2023-06-22T00:30:16;25.70;99.90
20102;DHT22;10210;52.284;9.892;2023-06-22T00:32:44;25.70;99.90
20102;DHT22;10210;52.284;9.892;2023-06-22T00:35:11;25.60;99.90
20102;DHT22;10210;52.284;9.892;2023-06-22T00:37:38;25.60;99.90
20102;DHT22;10210;52.284;9.892;2023-06-22T00:40:10;25.50;99.90
20102;DHT22;10210;52.284;9.892;2023-06-22T00:42:38;25.40;99.90
20102;DHT22;10210;52.284;9.892;2023-06-22T00:45:05;25.40;99.90
20102;DHT22;10210;52.284;9.892;2023-06-22T00:47:31;25.40;99.90
20102;DHT22;10210;52.284;9.892;2023-06-22T00:49:58;25.40;99.90
20102;DHT22;10210;52.284;9.892;2023-06-22T00:52:25;25.40;99.90
20102;DHT22;10210;52.284;9.892;2023-06-22T00:54:56;25.40;99.90
20102;DHT22;10210;52.284;9.892;2023-06-22T00:57:24;25.40;99.90
20102;DHT22;10210;52.284;9.892;2023-06-22T00:59:54;25.40;99.90
20102;DHT22;10210;52.284;9.892;2023-06-22T01:02:20;25.40;99.90
20102;DHT22;10210;52.284;9.892;2023-06-22T01:04:46;25.40;99.90
20102;DHT22;10210;52.284;9.892;2023-06-22T01:07:24;25.40;99.90
20102;DHT22;10210;52.284;9.892;2023-06-22T01:10:21;25.40;99.90
20102;DHT22;10210;52.284;9.892;2023-06-22T01:12:55;25.30;99.90
20102;DHT22;10210;52.284;9.892;2023-06-22T01:15:39;25.20;99.90
20102;DHT22;10210;52.284;9.892;2023-06-22T01:18:13;25.20;99.90
20102;DHT22;10210;52.284;9.892;2023-06-22T01:20:41;25.10;99.90
20102;DHT22;10210;52.284;9.892;2023-06-22T01:23:33;25.10;99.90
20102;DHT22;10210;52.284;9.892;2023-06-22T01:26:22;25.00;99.90
20102;DHT22;10210;52.284;9.892;2023-06-22T01:28:57;24.90;99.90
20102;DHT22;10210;52.284;9.892;2023-06-22T01:31:27;24.90;99.90
20102;DHT22;10210;52.284;9.892;2023-06-22T01:33:58;24.90;99.90
20102;DHT22;10210;52.284;9.892;2023-06-22T01:36:26;24.80;99.90
20102;DHT22;10210;52.284;9.892;2023-06-22T01:38:54;24.80;99.90
20102;DHT22;10210;52.284;9.892;2023-06-22T01:41:24;24.70;99.90
20102;DHT22;10210;52.284;9.892;2023-06-22T01:43:52;24.70;99.90
20102;DHT22;10210;52.284;9.892;2023-06-22T01:46:18;24.70;99.90
20102;DHT22;10210;52.284;9.892;2023-06-22T01:48:46;24.60;99.90
20102;DHT22;10210;52.284;9.892;2023-06-22T01:51:13;24.60;99.90
20102;DHT22;10210;52.284;9.892;2023-06-22T01:53:39;24.60;99.90
20102;DHT22;10210;52.284;9.892;2023-06-22T01:56:05;24.50;99.90
20102;DHT22;10210;52.284;9.892;2023-06-22T01:58:32;24.50;99.90
20102;DHT22;10210;52.284;9.892;2023-06-22T02:01:12;24.50;99.90
20102;DHT22;10210;52.284;9.892;2023-06-22T02:03:55;24.50;99.90
20102;DHT22;10210;52.284;9.892;2023-06-22T02:06:33;24.40;99.90
20102;DHT22;10210;52.284;9.892;2023-06-22T02:09:07;24.40;99.90
20102;DHT22;10210;52.284;9.892;2023-06-22T02:11:37;24.40;99.90
20102;DHT22;10210;52.284;9.892;2023-06-22T02:14:07;24.40;99.90
20102;DHT22;10210;52.284;9.892;2023-06-22T02:16:33;24.30;99.90
20102;DHT22;10210;52.284;9.892;2023-06-22T02:19:01;24.30;99.90
20102;DHT22;10210;52.284;9.892;2023-06-22T02:21:31;24.30;99.90
20102;DHT22;10210;52.284;9.892;2023-06-22T02:23:58;24.20;99.90
20102;DHT22;10210;52.284;9.892;2023-06-22T02:26:25;24.30;99.90
20102;DHT22;10210;52.284;9.892;2023-06-22T02:28:52;24.20;99.90
20102;DHT22;10210;52.284;9.892;2023-06-22T02:31:18;24.20;99.90
20102;DHT22;10210;52.284;9.892;2023-06-22T02:33:44;24.20;99.90
20102;DHT22;10210;52.284;9.892;2023-06-22T02:36:10;24.20;99.90
20102;DHT22;10210;52.284;9.892;2023-06-22T02:38:41;24.20;99.90
20102;DHT22;10210;52.284;9.892;2023-06-22T02:41:16;24.20;99.90
20102;DHT22;10210;52.284;9.892;2023-06-22T02:43:44;24.10;99.90
20102;DHT22;10210;52.284;9.892;2023-06-22T02:46:11;24.10;99.90
20102;DHT22;10210;52.284;9.892;2023-06-22T02:48:39;24.10;99.90
20102;DHT22;10210;52.284;9.892;2023-06-22T02:51:05;24.00;99.90
20102;DHT22;10210;52.284;9.892;2023-06-22T02:53:32;24.00;99.90
20102;DHT22;10210;52.284;9.892;2023-06-22T02:55:57;24.00;99.90
20102;DHT22;10210;52.284;9.892;2023-06-22T02:58:23;24.00;99.90
20102;DHT22;10210;52.284;9.892;2023-06-22T03:00:49;24.00;99.90
20102;DHT22;10210;52.284;9.892;2023-06-22T03:03:18;24.00;99.90
20102;DHT22;10210;52.284;9.892;2023-06-22T03:05:44;24.00;99.90
20102;DHT22;10210;52.284;9.892;2023-06-22T03:08:10;24.00;99.90
20102;DHT22;10210;52.284;9.892;2023-06-22T03:10:36;23.90;99.90
20102;DHT22;10210;52.284;9.892;2023-06-22T03:13:01;24.00;99.90
20102;DHT22;10210;52.284;9.892;2023-06-22T03:15:27;23.90;99.90
20102;DHT22;10210;52.284;9.892;2023-06-22T03:17:55;23.90;99.90
20102;DHT22;10210;52.284;9.892;2023-06-22T03:20:20;23.90;99.90
20102;DHT22;10210;52.284;9.892;2023-06-22T03:22:46;23.90;99.90
20102;DHT22;10210;52.284;9.892;2023-06-22T03:25:14;23.90;99.90
20102;DHT22;10210;52.284;9.892;2023-06-22T03:27:42;23.90;99.90
20102;DHT22;10210;52.284;9.892;2023-06-22T03:30:10;23.90;99.90
20102;DHT22;10210;52.284;9.892;2023-06-22T03:32:37;23.90;99.90
20102;DHT22;10210;52.284;9.892;2023-06-22T03:35:03;23.80;99.90
20102;DHT22;10210;52.284;9.892;2023-06-22T03:37:29;23.80;99.90
20102;DHT22;10210;52.284;9.892;2023-06-22T03:39:54;23.80;99.90
20102;DHT22;10210;52.284;9.892;2023-06-22T03:42:20;23.70;99.90
20102;DHT22;10210;52.284;9.892;2023-06-22T03:44:46;23.70;99.90
20102;DHT22;10210;52.284;9.892;2023-06-22T03:47:12;23.80;99.90
20102;DHT22;10210;52.284;9.892;2023-06-22T03:49:38;23.80;99.90
20102;DHT22;10210;52.284;9.892;2023-06-22T03:52:04;23.80;99.90
20102;DHT22;10210;52.284;9.892;2023-06-22T03:54:30;23.80;99.90
20102;DHT22;10210;52.284;9.892;2023-06-22T03:56:57;23.70;99.90
20102;DHT22;10210;52.284;9.892;2023-06-22T03:59:24;23.80;99.90
20102;DHT22;10210;52.284;9.892;2023-06-22T04:01:50;23.70;99.90
20102;DHT22;10210;52.284;9.892;2023-06-22T04:04:19;23.70;99.90
20102;DHT22;10210;52.284;9.892;2023-06-22T04:06:44;23.80;99.90
20102;DHT22;10210;52.284;9.892;2023-06-22T04:09:10;23.80;99.90
20102;DHT22;10210;52.284;9.892;2023-06-22T04:11:36;23.80;99.90
20102;DHT22;10210;52.284;9.892;2023-06-22T04:14:01;23.90;99.90
20102;DHT22;10210;52.284;9.892;2023-06-22T04:16:27;23.90;99.90
20102;DHT22;10210;52.284;9.892;2023-06-22T04:18:53;23.90;99.90
20102;DHT22;10210;52.284;9.892;2023-06-22T04:21:19;24.00;99.90
20102;DHT22;10210;52.284;9.892;2023-06-22T04:23:45;24.00;99.90
20102;DHT22;10210;52.284;9.892;2023-06-22T04:26:12;24.00;99.90
20102;DHT22;10210;52.284;9.892;2023-06-22T04:28:39;24.00;99.90
20102;DHT22;10210;52.284;9.892;2023-06-22T04:31:06;24.00;99.90
20102;DHT22;10210;52.284;9.892;2023-06-22T04:33:31;24.00;99.90
20102;DHT22;10210;52.284;9.892;2023-06-22T04:35:58;24.00;99.90
20102;DHT22;10210;52.284;9.892;2023-06-22T04:38:24;24.00;99.90
20102;DHT22;10210;52.284;9.892;2023-06-22T04:40:50;24.00;99.90
20102;DHT22;10210;52.284;9.892;2023-06-22T04:43:16;24.00;99.90
20102;DHT22;10210;52.284;9.892;2023-06-22T04:45:42;24.10;99.90
20102;DHT22;10210;52.284;9.892;2023-06-22T04:48:07;24.10;99.90
20102;DHT22;10210;52.284;9.892;2023-06-22T04:50:47;24.10;99.90
20102;DHT22;10210;52.284;9.892;2023-06-22T04:53:13;24.00;99.90
20102;DHT22;10210;52.284;9.892;2023-06-22T04:55:39;24.10;99.90
20102;DHT22;10210;52.284;9.892;2023-06-22T04:58:07;24.00;99.90
20102;DHT22;10210;52.284;9.892;2023-06-22T05:00:33;24.00;99.90
20102;DHT22;10210;52.284;9.892;2023-06-22T05:03:12;24.00;99.90
20102;DHT22;10210;52.284;9.892;2023-06-22T05:05:38;24.00;99.90
20102;DHT22;10210;52.284;9.892;2023-06-22T05:08:03;24.00;99.90
20102;DHT22;10210;52.284;9.892;2023-06-22T05:10:33;24.00;99.90
20102;DHT22;10210;52.284;9.892;2023-06-22T05:12:59;24.00;99.90
20102;DHT22;10210;52.284;9.892;2023-06-22T05:15:33;24.10;99.90
20102;DHT22;10210;52.284;9.892;2023-06-22T05:18:02;24.10;99.90
20102;DHT22;10210;52.284;9.892;2023-06-22T05:20:30;24.20;99.90
20102;DHT22;10210;52.284;9.892;2023-06-22T05:22:56;24.20;99.90
20102;DHT22;10210;52.284;9.892;2023-06-22T05:25:21;24.20;99.90
20102;DHT22;10210;52.284;9.892;2023-06-22T05:27:55;24.30;99.90
20102;DHT22;10210;52.284;9.892;2023-06-22T05:30:23;24.30;99.90
20102;DHT22;10210;52.284;9.892;2023-06-22T05:32:49;24.40;99.90
20102;DHT22;10210;52.284;9.892;2023-06-22T05:35:14;24.50;99.90
20102;DHT22;10210;52.284;9.892;2023-06-22T05:37:40;24.50;99.90
20102;DHT22;10210;52.284;9.892;2023-06-22T05:40:06;24.60;99.90
20102;DHT22;10210;52.284;9.892;2023-06-22T05:42:32;24.70;99.90
20102;DHT22;10210;52.284;9.892;2023-06-22T05:44:58;24.70;99.90
20102;DHT22;10210;52.284;9.892;2023-06-22T05:47:24;24.80;99.90
20102;DHT22;10210;52.284;9.892;2023-06-22T05:49:49;24.90;99.90
20102;DHT22;10210;52.284;9.892;2023-06-22T05:52:15;24.90;99.90
20102;DHT22;10210;52.284;9.892;2023-06-22T05:54:41;24.90;99.90
20102;DHT22;10210;52.284;9.892;2023-06-22T05:57:15;25.00;99.90
20102;DHT22;10210;52.284;9.892;2023-06-22T05:59:42;25.10;99.90
20102;DHT22;10210;52.284;9.892;2023-06-22T06:02:07;25.10;99.90
20102;DHT22;10210;52.284;9.892;2023-06-22T06:04:33;25.10;99.90
20102;DHT22;10210;52.284;9.892;2023-06-22T06:07:00;25.10;99.90
20102;DHT22;10210;52.284;9.892;2023-06-22T06:09:26;25.20;99.90
20102;DHT22;10210;52.284;9.892;2023-06-22T06:11:55;25.20;99.90
20102;DHT22;10210;52.284;9.892;2023-06-22T06:14:20;25.20;99.90
20102;DHT22;10210;52.284;9.892;2023-06-22T06:16:46;25.20;99.90
20102;DHT22;10210;52.284;9.892;2023-06-22T06:19:13;25.20;99.90
20102;DHT22;10210;52.284;9.892;2023-06-22T06:21:38;25.30;99.90
20102;DHT22;10210;52.284;9.892;2023-06-22T06:24:04;25.30;99.90
20102;DHT22;10210;52.284;9.892;2023-06-22T06:26:33;25.30;99.90
20102;DHT22;10210;52.284;9.892;2023-06-22T06:29:01;25.40;99.90
20102;DHT22;10210;52.284;9.892;2023-06-22T06:31:28;25.40;99.90
20102;DHT22;10210;52.284;9.892;2023-06-22T06:33:54;25.50;99.90
20102;DHT22;10210;52.284;9.892;2023-06-22T06:36:20;25.60;99.90
20102;DHT22;10210;52.284;9.892;2023-06-22T06:38:49;25.60;99.90
20102;DHT22;10210;52.284;9.892;2023-06-22T06:41:21;25.70;99.90
20102;DHT22;10210;52.284;9.892;2023-06-22T06:43:46;25.70;99.90
20102;DHT22;10210;52.284;9.892;2023-06-22T06:46:12;25.70;99.90
20102;DHT22;10210;52.284;9.892;2023-06-22T06:48:38;25.80;99.90
20102;DHT22;10210;52.284;9.892;2023-06-22T06:51:03;25.80;99.90
20102;DHT22;10210;52.284;9.892;2023-06-22T06:53:36;25.80;99.90
20102;DHT22;10210;52.284;9.892;2023-06-22T06:56:03;25.80;99.90
20102;DHT22;10210;52.284;9.892;2023-06-22T06:58:30;25.90;99.90
20102;DHT22;10210;52.284;9.892;2023-06-22T07:00:56;25.90;99.90
20102;DHT22;10210;52.284;9.892;2023-06-22T07:03:22;25.90;99.90
20102;DHT22;10210;52.284;9.892;2023-06-22T07:05:48;26.00;99.90
20102;DHT22;10210;52.284;9.892;2023-06-22T07:08:32;26.00;99.90
20102;DHT22;10210;52.284;9.892;2023-06-22T07:10:57;26.10;99.90
20102;DHT22;10210;52.284;9.892;2023-06-22T07:13:23;26.10;99.90
20102;DHT22;10210;52.284;9.892;2023-06-22T07:15:49;26.10;99.90
20102;DHT22;10210;52.284;9.892;2023-06-22T07:18:23;26.10;99.90
20102;DHT22;10210;52.284;9.892;2023-06-22T07:20:48;26.20;99.90
20102;DHT22;10210;52.284;9.892;2023-06-22T07:23:14;26.20;99.90
20102;DHT22;10210;52.284;9.892;2023-06-22T07:25:40;26.30;99.90
20102;DHT22;10210;52.284;9.892;2023-06-22T07:28:07;26.30;99.90
20102;DHT22;10210;52.284;9.892;2023-06-22T07:30:42;26.40;99.90
20102;DHT22;10210;52.284;9.892;2023-06-22T07:33:11;26.50;99.90
20102;DHT22;10210;52.284;9.892;2023-06-22T07:35:37;26.50;99.90
20102;DHT22;10210;52.284;9.892;2023-06-22T07:38:02;26.70;99.90
20102;DHT22;10210;52.284;9.892;2023-06-22T07:40:29;26.80;99.90
20102;DHT22;10210;52.284;9.892;2023-06-22T07:42:54;26.90;99.90
20102;DHT22;10210;52.284;9.892;2023-06-22T07:45:21;27.10;99.90
20102;DHT22;10210;52.284;9.892;2023-06-22T07:47:49;27.20;99.90
20102;DHT22;10210;52.284;9.892;2023-06-22T07:50:15;27.20;99.90
20102;DHT22;10210;52.284;9.892;2023-06-22T07:52:42;27.20;99.90
20102;DHT22;10210;52.284;9.892;2023-06-22T07:55:08;27.20;99.90
20102;DHT22;10210;52.284;9.892;2023-06-22T07:57:34;27.30;99.90
20102;DHT22;10210;52.284;9.892;2023-06-22T08:00:03;27.20;99.90
20102;DHT22;10210;52.284;9.892;2023-06-22T08:02:41;27.20;99.90
20102;DHT22;10210;52.284;9.892;2023-06-22T08:05:09;27.10;99.90
20102;DHT22;10210;52.284;9.892;2023-06-22T08:07:36;27.10;99.90
20102;DHT22;10210;52.284;9.892;2023-06-22T08:10:11;27.10;99.90
20102;DHT22;10210;52.284;9.892;2023-06-22T08:12:37;27.00;99.90
20102;DHT22;10210;52.284;9.892;2023-06-22T08:15:03;27.00;99.90
20102;DHT22;10210;52.284;9.892;2023-06-22T08:17:29;27.00;99.90
20102;DHT22;10210;52.284;9.892;2023-06-22T08:19:56;27.00;99.90
20102;DHT22;10210;52.284;9.892;2023-06-22T08:22:22;27.00;99.90
20102;DHT22;10210;52.284;9.892;2023-06-22T08:24:50;27.00;99.90
20102;DHT22;10210;52.284;9.892;2023-06-22T08:27:16;27.00;99.90
20102;DHT22;10210;52.284;9.892;2023-06-22T08:29:44;27.00;99.90
20102;DHT22;10210;52.284;9.892;2023-06-22T08:32:11;27.10;99.90
20102;DHT22;10210;52.284;9.892;2023-06-22T08:34:37;27.10;99.90
20102;DHT22;10210;52.284;9.892;2023-06-22T08:37:11;27.10;99.90
20102;DHT22;10210;52.284;9.892;2023-06-22T08:39:37;27.10;99.90
20102;DHT22;10210;52.284;9.892;2023-06-22T08:42:02;27.10;99.90
20102;DHT22;10210;52.284;9.892;2023-06-22T08:44:28;27.10;99.90
20102;DHT22;10210;52.284;9.892;2023-06-22T08:46:54;27.10;99.90
20102;DHT22;10210;52.284;9.892;2023-06-22T08:49:19;27.10;99.90
20102;DHT22;10210;52.284;9.892;2023-06-22T08:51:51;27.10;99.90
20102;DHT22;10210;52.284;9.892;2023-06-22T08:54:19;27.10;99.90
20102;DHT22;10210;52.284;9.892;2023-06-22T08:56:44;27.20;99.90
20102;DHT22;10210;52.284;9.892;2023-06-22T08:59:10;27.10;99.90
20102;DHT22;10210;52.284;9.892;2023-06-22T09:01:36;27.10;99.90
20102;DHT22;10210;52.284;9.892;2023-06-22T09:04:01;27.20;99.90
20102;DHT22;10210;52.284;9.892;2023-06-22T09:06:31;27.10;99.90
20102;DHT22;10210;52.284;9.892;2023-06-22T09:08:57;27.20;99.90
20102;DHT22;10210;52.284;9.892;2023-06-22T09:11:25;27.20;99.90
20102;DHT22;10210;52.284;9.892;2023-06-22T09:13:50;27.20;99.90
20102;DHT22;10210;52.284;9.892;2023-06-22T09:16:17;27.30;99.90
20102;DHT22;10210;52.284;9.892;2023-06-22T09:18:49;27.30;99.90
20102;DHT22;10210;52.284;9.892;2023-06-22T09:21:17;27.40;99.90
20102;DHT22;10210;52.284;9.892;2023-06-22T09:23:42;27.40;99.90
20102;DHT22;10210;52.284;9.892;2023-06-22T09:26:10;27.50;99.90
20102;DHT22;10210;52.284;9.892;2023-06-22T09:28:35;27.60;99.90
20102;DHT22;10210;52.284;9.892;2023-06-22T09:31:01;27.60;99.90
20102;DHT22;10210;52.284;9.892;2023-06-22T09:33:27;27.70;99.90
20102;DHT22;10210;52.284;9.892;2023-06-22T09:35:55;27.80;99.90
20102;DHT22;10210;52.284;9.892;2023-06-22T09:38:21;27.80;99.90
20102;DHT22;10210;52.284;9.892;2023-06-22T09:40:47;27.90;99.90
20102;DHT22;10210;52.284;9.892;2023-06-22T09:43:13;27.90;99.90
20102;DHT22;10210;52.284;9.892;2023-06-22T09:45:39;27.90;99.90
20102;DHT22;10210;52.284;9.892;2023-06-22T09:48:10;27.90;99.90
20102;DHT22;10210;52.284;9.892;2023-06-22T09:50:36;27.90;99.90
20102;DHT22;10210;52.284;9.892;2023-06-22T09:53:02;27.90;99.90
20102;DHT22;10210;52.284;9.892;2023-06-22T09:55:28;28.00;99.90
20102;DHT22;10210;52.284;9.892;2023-06-22T09:57:54;28.00;99.90
20102;DHT22;10210;52.284;9.892;2023-06-22T10:00:21;28.00;99.90
20102;DHT22;10210;52.284;9.892;2023-06-22T10:02:47;28.10;99.90
20102;DHT22;10210;52.284;9.892;2023-06-22T10:05:13;28.30;99.90
20102;DHT22;10210;52.284;9.892;2023-06-22T10:07:39;28.50;99.90
20102;DHT22;10210;52.284;9.892;2023-06-22T10:10:08;28.70;99.90
20102;DHT22;10210;52.284;9.892;2023-06-22T10:12:34;28.80;99.90
20102;DHT22;10210;52.284;9.892;2023-06-22T10:15:00;29.00;99.90
20102;DHT22;10210;52.284;9.892;2023-06-22T10:17:53;29.10;99.90
20102;DHT22;10210;52.284;9.892;2023-06-22T10:20:18;29.20;99.90
20102;DHT22;10210;52.284;9.892;2023-06-22T10:22:46;29.30;99.90
20102;DHT22;10210;52.284;9.892;2023-06-22T10:25:21;29.30;99.90
20102;DHT22;10210;52.284;9.892;2023-06-22T10:27:46;29.30;99.90
20102;DHT22;10210;52.284;9.892;2023-06-22T10:30:13;29.30;99.90
20102;DHT22;10210;52.284;9.892;2023-06-22T10:32:40;29.30;99.90
20102;DHT22;10210;52.284;9.892;2023-06-22T10:35:11;29.20;99.90
20102;DHT22;10210;52.284;9.892;2023-06-22T10:37:45;29.20;99.90
20102;DHT22;10210;52.284;9.892;2023-06-22T10:40:15;29.10;99.90
20102;DHT22;10210;52.284;9.892;2023-06-22T10:42:42;29.10;99.90
20102;DHT22;10210;52.284;9.892;2023-06-22T10:45:09;29.10;99.90
20102;DHT22;10210;52.284;9.892;2023-06-22T10:47:35;29.10;99.90
20102;DHT22;10210;52.284;9.892;2023-06-22T10:50:02;29.10;99.90
20102;DHT22;10210;52.284;9.892;2023-06-22T10:52:29;29.10;99.90
20102;DHT22;10210;52.284;9.892;2023-06-22T10:54:55;29.10;99.90
20102;DHT22;10210;52.284;9.892;2023-06-22T10:57:21;29.10;99.90
20102;DHT22;10210;52.284;9.892;2023-06-22T10:59:47;29.10;99.90
20102;DHT22;10210;52.284;9.892;2023-06-22T11:02:13;29.10;99.90
20102;DHT22;10210;52.284;9.892;2023-06-22T11:04:48;29.10;99.90
20102;DHT22;10210;52.284;9.892;2023-06-22T11:07:15;29.20;99.90
20102;DHT22;10210;52.284;9.892;2023-06-22T11:09:45;29.30;99.90
20102;DHT22;10210;52.284;9.892;2023-06-22T11:12:11;29.40;99.90
20102;DHT22;10210;52.284;9.892;2023-06-22T11:14:36;29.40;99.90
20102;DHT22;10210;52.284;9.892;2023-06-22T11:17:08;29.50;99.90
20102;DHT22;10210;52.284;9.892;2023-06-22T11:19:33;29.50;99.90
20102;DHT22;10210;52.284;9.892;2023-06-22T11:21:59;29.60;99.90
20102;DHT22;10210;52.284;9.892;2023-06-22T11:24:25;29.60;99.90
20102;DHT22;10210;52.284;9.892;2023-06-22T11:26:50;29.60;99.90
20102;DHT22;10210;52.284;9.892;2023-06-22T11:29:16;29.70;99.90
20102;DHT22;10210;52.284;9.892;2023-06-22T11:31:47;29.80;99.90
20102;DHT22;10210;52.284;9.892;2023-06-22T11:34:13;29.80;99.90
20102;DHT22;10210;52.284;9.892;2023-06-22T11:36:39;29.90;99.90
20102;DHT22;10210;52.284;9.892;2023-06-22T11:39:07;30.00;99.90
20102;DHT22;10210;52.284;9.892;2023-06-22T11:41:35;30.10;99.90
20102;DHT22;10210;52.284;9.892;2023-06-22T11:44:00;30.30;99.90
20102;DHT22;10210;52.284;9.892;2023-06-22T11:46:26;30.40;99.90
20102;DHT22;10210;52.284;9.892;2023-06-22T11:48:52;30.60;99.90
20102;DHT22;10210;52.284;9.892;2023-06-22T11:51:17;30.80;99.90
20102;DHT22;10210;52.284;9.892;2023-06-22T11:53:43;31.00;99.90
20102;DHT22;10210;52.284;9.892;2023-06-22T11:56:08;31.10;99.90
20102;DHT22;10210;52.284;9.892;2023-06-22T11:58:34;31.20;99.90
20102;DHT22;10210;52.284;9.892;2023-06-22T12:01:02;31.30;99.90
20102;DHT22;10210;52.284;9.892;2023-06-22T12:03:30;31.40;99.90
20102;DHT22;10210;52.284;9.892;2023-06-22T12:05:56;31.50;99.90
20102;DHT22;10210;52.284;9.892;2023-06-22T12:08:22;31.60;99.90
20102;DHT22;10210;52.284;9.892;2023-06-22T12:10:49;31.60;99.90
20102;DHT22;10210;52.284;9.892;2023-06-22T12:13:15;31.60;99.90
20102;DHT22;10210;52.284;9.892;2023-06-22T12:15:42;31.60;99.90
20102;DHT22;10210;52.284;9.892;2023-06-22T12:18:08;31.60;99.90
20102;DHT22;10210;52.284;9.892;2023-06-22T12:20:34;31.60;99.90
20102;DHT22;10210;52.284;9.892;2023-06-22T12:23:00;31.60;99.90
20102;DHT22;10210;52.284;9.892;2023-06-22T12:25:26;31.60;99.90
20102;DHT22;10210;52.284;9.892;2023-06-22T12:27:52;31.70;99.90
20102;DHT22;10210;52.284;9.892;2023-06-22T12:30:19;31.70;99.90
20102;DHT22;10210;52.284;9.892;2023-06-22T12:32:45;31.70;99.90
20102;DHT22;10210;52.284;9.892;2023-06-22T12:35:10;31.80;99.90
20102;DHT22;10210;52.284;9.892;2023-06-22T12:37:40;31.80;99.90
20102;DHT22;10210;52.284;9.892;2023-06-22T12:40:08;31.80;99.90
20102;DHT22;10210;52.284;9.892;2023-06-22T12:42:46;31.70;99.90
20102;DHT22;10210;52.284;9.892;2023-06-22T12:45:12;31.60;99.90
20102;DHT22;10210;52.284;9.892;2023-06-22T12:47:37;31.60;99.90
20102;DHT22;10210;52.284;9.892;2023-06-22T12:50:03;31.60;99.90
20102;DHT22;10210;52.284;9.892;2023-06-22T12:52:32;31.50;99.90
20102;DHT22;10210;52.284;9.892;2023-06-22T12:55:08;31.50;99.90
20102;DHT22;10210;52.284;9.892;2023-06-22T12:57:34;31.40;99.90
20102;DHT22;10210;52.284;9.892;2023-06-22T12:59:59;31.40;99.90
20102;DHT22;10210;52.284;9.892;2023-06-22T13:02:26;31.40;99.90
20102;DHT22;10210;52.284;9.892;2023-06-22T13:04:51;31.30;99.90
20102;DHT22;10210;52.284;9.892;2023-06-22T13:07:17;31.20;99.90
20102;DHT22;10210;52.284;9.892;2023-06-22T13:09:49;31.10;99.90
20102;DHT22;10210;52.284;9.892;2023-06-22T13:12:17;31.10;99.90
20102;DHT22;10210;52.284;9.892;2023-06-22T13:14:42;31.00;99.90
20102;DHT22;10210;52.284;9.892;2023-06-22T13:17:09;30.90;99.90
20102;DHT22;10210;52.284;9.892;2023-06-22T13:19:34;30.90;99.90
20102;DHT22;10210;52.284;9.892;2023-06-22T13:22:03;30.90;99.90
20102;DHT22;10210;52.284;9.892;2023-06-22T13:24:29;30.90;99.90
20102;DHT22;10210;52.284;9.892;2023-06-22T13:26:55;31.00;99.90
20102;DHT22;10210;52.284;9.892;2023-06-22T13:29:20;31.00;99.90
20102;DHT22;10210;52.284;9.892;2023-06-22T13:31:46;31.10;99.90
20102;DHT22;10210;52.284;9.892;2023-06-22T13:34:12;31.10;99.90
20102;DHT22;10210;52.284;9.892;2023-06-22T13:36:37;31.10;99.90
20102;DHT22;10210;52.284;9.892;2023-06-22T13:39:03;31.20;99.90
20102;DHT22;10210;52.284;9.892;2023-06-22T13:41:29;31.30;99.90
20102;DHT22;10210;52.284;9.892;2023-06-22T13:43:55;31.40;99.90
20102;DHT22;10210;52.284;9.892;2023-06-22T13:46:20;31.40;99.90
20102;DHT22;10210;52.284;9.892;2023-06-22T13:48:46;31.40;99.90
20102;DHT22;10210;52.284;9.892;2023-06-22T13:51:12;31.40;99.90
20102;DHT22;10210;52.284;9.892;2023-06-22T13:53:46;31.40;99.90
20102;DHT22;10210;52.284;9.892;2023-06-22T13:56:12;31.40;99.90
20102;DHT22;10210;52.284;9.892;2023-06-22T13:58:37;31.40;99.90
20102;DHT22;10210;52.284;9.892;2023-06-22T14:01:03;31.30;99.90
20102;DHT22;10210;52.284;9.892;2023-06-22T14:03:28;31.30;99.90
20102;DHT22;10210;52.284;9.892;2023-06-22T14:05:54;31.30;99.90
20102;DHT22;10210;52.284;9.892;2023-06-22T14:08:21;31.20;99.90
20102;DHT22;10210;52.284;9.892;2023-06-22T14:10:49;31.10;99.90
20102;DHT22;10210;52.284;9.892;2023-06-22T14:13:15;31.10;99.90
20102;DHT22;10210;52.284;9.892;2023-06-22T14:15:42;30.90;99.90
20102;DHT22;10210;52.284;9.892;2023-06-22T14:18:08;30.80;99.90
20102;DHT22;10210;52.284;9.892;2023-06-22T14:20:33;30.60;99.90
20102;DHT22;10210;52.284;9.892;2023-06-22T14:22:59;30.50;99.90
20102;DHT22;10210;52.284;9.892;2023-06-22T14:25:25;30.40;99.90
20102;DHT22;10210;52.284;9.892;2023-06-22T14:27:50;30.30;99.90
20102;DHT22;10210;52.284;9.892;2023-06-22T14:30:16;30.20;99.90
20102;DHT22;10210;52.284;9.892;2023-06-22T14:32:43;30.10;99.90
20102;DHT22;10210;52.284;9.892;2023-06-22T14:35:09;30.10;99.90
20102;DHT22;10210;52.284;9.892;2023-06-22T14:37:35;30.00;99.90
20102;DHT22;10210;52.284;9.892;2023-06-22T14:40:01;30.00;99.90
20102;DHT22;10210;52.284;9.892;2023-06-22T14:42:26;30.00;99.90
20102;DHT22;10210;52.284;9.892;2023-06-22T14:44:52;30.00;99.90
20102;DHT22;10210;52.284;9.892;2023-06-22T14:47:18;30.00;99.90
20102;DHT22;10210;52.284;9.892;2023-06-22T14:49:44;30.00;99.90
20102;DHT22;10210;52.284;9.892;2023-06-22T14:52:10;30.10;99.90
20102;DHT22;10210;52.284;9.892;2023-06-22T14:54:35;30.10;99.90
20102;DHT22;10210;52.284;9.892;2023-06-22T14:57:01;30.10;99.90
20102;DHT22;10210;52.284;9.892;2023-06-22T14:59:27;30.00;99.90
20102;DHT22;10210;52.284;9.892;2023-06-22T15:01:52;30.00;99.90
20102;DHT22;10210;52.284;9.892;2023-06-22T15:04:18;29.70;99.90
20102;DHT22;10210;52.284;9.892;2023-06-22T15:06:44;29.80;99.90
20102;DHT22;10210;52.284;9.892;2023-06-22T15:09:10;29.80;99.90
20102;DHT22;10210;52.284;9.892;2023-06-22T15:11:36;29.80;99.90
20102;DHT22;10210;52.284;9.892;2023-06-22T15:14:02;29.80;99.90
20102;DHT22;10210;52.284;9.892;2023-06-22T15:16:27;29.70;99.90
20102;DHT22;10210;52.284;9.892;2023-06-22T15:18:53;29.70;99.90
20102;DHT22;10210;52.284;9.892;2023-06-22T15:21:18;29.70;99.90
20102;DHT22;10210;52.284;9.892;2023-06-22T15:23:45;29.60;99.90
20102;DHT22;10210;52.284;9.892;2023-06-22T15:26:10;29.50;99.90
20102;DHT22;10210;52.284;9.892;2023-06-22T15:28:36;29.40;99.90
20102;DHT22;10210;52.284;9.892;2023-06-22T15:31:02;29.40;99.90